Time;durP1;ratioP1;P1;durP2;ratioP2;P2;SDS_P1;SDS_P2;PMS_P1;PMS_P2;Temp;Humidity;BMP_temperature;BMP_pressure;BME280_temperature;BME280_humidity;BME280_pressure;Samples;Min_cycle;Max_cycle;Signal;HPM_P1;HPM_P2
2022/09/12 00:01:05;;;;;;;1.30;1.10;;;15.80;99.90;;;;;;5011202;28;20216;-86
2022/09/12 00:03:31;;;;;;;1.00;1.00;;;15.70;99.90;;;;;;5011251;28;20166;-86
2022/09/12 00:05:58;;;;;;;4.00;1.10;;;15.80;99.90;;;;;;5011350;28;20231;-85
2022/09/12 00:08:23;;;;;;;2.83;1.23;;;15.70;99.90;;;;;;5011349;28;20264;-85
2022/09/12 00:10:49;;;;;;;3.13;1.30;;;15.70;99.90;;;;;;5011970;28;20260;-85
2022/09/12 00:13:15;;;;;;;1.37;1.27;;;15.60;99.90;;;;;;5011314;28;20977;-85
2022/09/12 00:15:43;;;;;;;1.43;1.30;;;15.60;99.90;;;;;;5011037;28;20205;-88
2022/09/12 00:18:13;;;;;;;3.13;1.30;;;15.50;99.90;;;;;;5011014;28;20179;-86
2022/09/12 00:20:46;;;;;;;1.23;1.20;;;15.50;99.90;;;;;;5010955;28;20175;-87
2022/09/12 00:23:13;;;;;;;1.30;1.20;;;15.60;99.90;;;;;;5011081;28;20176;-88
2022/09/12 00:25:46;;;;;;;1.37;1.27;;;15.50;99.90;;;;;;5010636;28;20206;-88
2022/09/12 00:28:14;;;;;;;1.20;1.20;;;15.40;99.90;;;;;;5012059;28;20287;-87
2022/09/12 00:30:45;;;;;;;1.73;1.50;;;15.40;99.90;;;;;;5011431;28;20177;-86
2022/09/12 00:33:11;;;;;;;1.20;1.20;;;15.20;99.90;;;;;;5011184;28;20228;-87
2022/09/12 00:35:43;;;;;;;1.80;1.00;;;15.10;99.90;;;;;;5010893;28;20216;-88
2022/09/12 00:38:09;;;;;;;1.47;1.33;;;15.10;99.90;;;;;;5012354;28;20200;-88
2022/09/12 00:40:35;;;;;;;1.30;1.20;;;15.00;99.90;;;;;;5012704;28;20641;-86
2022/09/12 00:43:01;;;;;;;1.03;1.00;;;15.10;99.90;;;;;;5012414;28;20255;-87
2022/09/12 00:45:28;;;;;;;1.10;1.10;;;15.00;99.90;;;;;;5012334;28;20261;-86
2022/09/12 00:47:57;;;;;;;1.20;1.10;;;15.00;99.90;;;;;;5012685;28;20169;-87
2022/09/12 00:50:24;;;;;;;2.57;1.00;;;15.10;99.90;;;;;;5026347;28;20314;-86
2022/09/12 00:52:55;;;;;;;1.57;1.47;;;15.00;99.90;;;;;;5036144;28;20195;-87
2022/09/12 00:55:38;;;;;;;1.30;1.20;;;14.90;99.90;;;;;;5022257;28;20284;-88
2022/09/12 00:58:11;;;;;;;1.43;1.13;;;14.90;99.90;;;;;;5011697;28;20165;-89
2022/09/12 01:00:37;;;;;;;1.20;1.20;;;14.90;99.90;;;;;;5010847;28;20657;-87
2022/09/12 01:03:08;;;;;;;1.63;1.10;;;14.90;99.90;;;;;;5010422;28;20542;-88
2022/09/12 01:05:38;;;;;;;1.30;1.20;;;15.00;99.90;;;;;;5010312;28;20184;-85
2022/09/12 01:08:05;;;;;;;0.90;0.90;;;14.90;99.90;;;;;;5015771;28;20153;-86
2022/09/12 01:10:36;;;;;;;2.20;1.20;;;14.90;99.90;;;;;;5011193;28;20172;-86
2022/09/12 01:13:05;;;;;;;1.33;1.23;;;15.00;99.90;;;;;;5010609;28;20162;-86
2022/09/12 01:15:31;;;;;;;1.40;1.30;;;15.00;99.90;;;;;;5010174;28;20688;-86
2022/09/12 01:18:31;;;;;;;1.80;1.20;;;15.00;99.90;;;;;;5010266;28;20169;-85
2022/09/12 01:21:24;;;;;;;1.40;1.30;;;14.90;99.90;;;;;;5007985;28;20243;-85
2022/09/12 01:24:08;;;;;;;1.30;1.20;;;14.90;99.90;;;;;;5020245;28;20165;-85
2022/09/12 01:27:15;;;;;;;1.00;1.00;;;14.80;99.90;;;;;;5014080;28;20200;-86
2022/09/12 01:30:23;;;;;;;0.90;0.90;;;14.80;99.90;;;;;;5007951;28;20189;-86
2022/09/12 01:32:54;;;;;;;1.60;1.50;;;14.80;99.90;;;;;;5003089;28;20849;-87
2022/09/12 01:35:37;;;;;;;2.30;1.23;;;14.70;99.90;;;;;;5012235;28;20291;-88
2022/09/12 01:38:39;;;;;;;1.27;1.20;;;14.80;99.90;;;;;;5010789;28;20659;-88
2022/09/12 01:41:34;;;;;;;1.47;1.37;;;14.70;99.90;;;;;;5008973;28;20169;-89
2022/09/12 01:44:05;;;;;;;1.93;1.10;;;14.60;99.90;;;;;;5010181;28;20181;-87
2022/09/12 01:47:04;;;;;;;1.20;1.20;;;14.60;99.90;;;;;;5020226;28;20200;-85
2022/09/12 01:50:01;;;;;;;1.67;1.13;;;14.60;99.90;;;;;;5004479;28;20208;-86
2022/09/12 01:52:52;;;;;;;2.10;2.00;;;14.60;99.90;;;;;;5010508;28;20340;-85
2022/09/12 01:55:27;;;;;;;5.10;1.40;;;14.60;99.90;;;;;;5010185;28;20355;-86
2022/09/12 01:58:14;;;;;;;2.73;1.00;;;14.50;99.90;;;;;;5009760;28;20169;-86
2022/09/12 02:01:08;;;;;;;1.10;1.10;;;14.50;99.90;;;;;;5010163;28;20729;-85
2022/09/12 02:04:03;;;;;;;4.33;1.23;;;14.60;99.90;;;;;;5009969;28;20536;-86
2022/09/12 02:06:34;;;;;;;1.03;1.03;;;14.60;99.90;;;;;;5010014;28;20193;-85
2022/09/12 02:09:13;;;;;;;1.10;1.10;;;14.60;99.90;;;;;;5008288;28;20191;-85
2022/09/12 02:11:43;;;;;;;2.33;1.20;;;14.60;99.90;;;;;;5010209;28;20165;-85
2022/09/12 02:14:14;;;;;;;1.60;1.33;;;14.60;99.90;;;;;;5013647;28;20173;-85
2022/09/12 02:16:47;;;;;;;1.23;1.23;;;14.50;99.90;;;;;;5014260;28;20626;-85
2022/09/12 02:19:22;;;;;;;1.30;1.30;;;14.50;99.90;;;;;;5012947;28;20533;-85
2022/09/12 02:21:53;;;;;;;1.30;1.20;;;14.50;99.90;;;;;;5013590;28;20181;-85
2022/09/12 02:24:22;;;;;;;1.40;1.40;;;14.50;99.90;;;;;;5015019;28;20573;-85
2022/09/12 02:26:53;;;;;;;1.40;1.30;;;14.50;99.90;;;;;;5030591;28;20195;-85
2022/09/12 02:29:19;;;;;;;1.50;1.20;;;14.40;99.90;;;;;;5038737;28;20233;-86
2022/09/12 02:31:52;;;;;;;1.63;1.40;;;14.40;99.90;;;;;;5018142;28;20239;-84
2022/09/12 02:34:27;;;;;;;2.30;1.20;;;14.40;99.90;;;;;;5013490;28;20175;-84
2022/09/12 02:37:11;;;;;;;1.40;1.30;;;14.20;99.90;;;;;;5011506;28;20612;-86
2022/09/12 02:39:39;;;;;;;1.57;1.20;;;14.30;99.90;;;;;;5022357;28;20165;-85
2022/09/12 02:42:06;;;;;;;3.70;1.33;;;14.30;99.90;;;;;;5016551;28;20191;-86
2022/09/12 02:44:34;;;;;;;1.20;1.20;;;14.20;99.90;;;;;;5011730;28;20207;-85
2022/09/12 02:47:07;;;;;;;1.50;1.10;;;14.20;99.90;;;;;;5012848;28;20173;-85
2022/09/12 02:49:33;;;;;;;1.73;1.20;;;14.30;99.90;;;;;;5012952;28;20625;-84
2022/09/12 02:52:00;;;;;;;1.60;1.50;;;14.30;99.90;;;;;;5013005;28;20280;-85
2022/09/12 02:54:26;;;;;;;1.83;1.43;;;14.30;99.90;;;;;;5016897;28;20221;-85
2022/09/12 02:56:52;;;;;;;1.50;1.40;;;14.30;99.90;;;;;;5016883;28;20637;-86
2022/09/12 02:59:21;;;;;;;1.33;1.30;;;14.40;99.90;;;;;;5012410;28;20209;-87
2022/09/12 03:01:58;;;;;;;1.60;1.43;;;14.30;99.90;;;;;;5013252;28;20184;-87
2022/09/12 03:04:38;;;;;;;1.23;1.20;;;14.30;99.90;;;;;;5013007;28;20210;-89
2022/09/12 03:07:06;;;;;;;1.50;1.40;;;14.40;99.90;;;;;;5011825;28;20168;-89
2022/09/12 03:09:32;;;;;;;1.30;1.20;;;14.40;99.90;;;;;;5016823;28;20179;-85
2022/09/12 03:12:06;;;;;;;2.00;1.20;;;14.40;99.90;;;;;;5012842;28;20180;-87
2022/09/12 03:15:03;;;;;;;4.73;1.20;;;14.50;99.90;;;;;;5012533;28;20192;-85
2022/09/12 03:17:50;;;;;;;1.60;1.43;;;14.60;99.90;;;;;;5016765;28;20207;-85
2022/09/12 03:20:52;;;;;;;1.47;1.10;;;14.60;99.90;;;;;;5013575;28;20244;-85
2022/09/12 03:23:57;;;;;;;1.20;1.20;;;14.60;99.90;;;;;;5013637;28;20169;-86
2022/09/12 03:26:46;;;;;;;1.10;1.10;;;14.70;99.90;;;;;;5012671;28;20216;-87
2022/09/12 03:29:13;;;;;;;2.60;1.30;;;14.70;99.90;;;;;;5011820;28;20527;-87
2022/09/12 03:31:52;;;;;;;2.83;1.30;;;14.70;99.90;;;;;;5013095;28;20260;-86
2022/09/12 03:34:19;;;;;;;1.40;1.20;;;14.70;99.90;;;;;;5011624;28;21000;-87
2022/09/12 03:36:46;;;;;;;1.20;1.20;;;14.70;99.90;;;;;;5014995;28;20244;-87
2022/09/12 03:39:12;;;;;;;1.07;1.00;;;14.70;99.90;;;;;;5012166;28;20258;-88
2022/09/12 03:41:38;;;;;;;1.57;1.10;;;14.70;99.90;;;;;;5010643;28;20657;-88
2022/09/12 03:44:04;;;;;;;1.10;1.10;;;14.70;99.90;;;;;;5012150;28;20170;-87
2022/09/12 03:46:30;;;;;;;2.83;1.20;;;14.70;99.90;;;;;;5011907;28;20227;-89
2022/09/12 03:48:55;;;;;;;2.43;1.40;;;14.70;99.90;;;;;;5012006;28;20523;-88
2022/09/12 03:51:21;;;;;;;1.00;1.00;;;14.70;99.90;;;;;;5012084;28;20176;-88
2022/09/12 03:53:47;;;;;;;1.30;1.20;;;14.70;99.90;;;;;;5012676;28;20175;-88
2022/09/12 03:56:13;;;;;;;1.47;1.37;;;14.80;99.90;;;;;;5013295;28;20227;-86
2022/09/12 03:58:40;;;;;;;1.30;1.30;;;14.80;99.90;;;;;;5012608;28;20231;-85
2022/09/12 04:01:14;;;;;;;1.33;1.33;;;14.80;99.90;;;;;;5014527;28;20184;-86
2022/09/12 04:03:46;;;;;;;3.10;1.77;;;14.80;99.90;;;;;;5032494;28;20208;-85
2022/09/12 04:06:15;;;;;;;1.33;1.30;;;14.80;99.90;;;;;;5031997;28;20249;-86
2022/09/12 04:08:42;;;;;;;3.03;1.47;;;14.80;99.90;;;;;;5013948;28;20177;-87
2022/09/12 04:11:11;;;;;;;1.80;1.40;;;14.90;99.90;;;;;;5012966;28;20209;-87
2022/09/12 04:13:38;;;;;;;1.83;1.47;;;15.00;99.90;;;;;;5012413;28;20645;-87
2022/09/12 04:16:06;;;;;;;1.27;1.27;;;15.00;99.90;;;;;;5010401;28;20252;-86
2022/09/12 04:18:32;;;;;;;2.77;2.10;;;15.00;99.90;;;;;;5011398;28;20180;-85
2022/09/12 04:21:02;;;;;;;1.33;1.17;;;15.00;99.90;;;;;;5011054;28;20242;-86
2022/09/12 04:23:27;;;;;;;1.57;1.20;;;15.10;99.90;;;;;;5011343;28;20173;-87
2022/09/12 04:25:54;;;;;;;1.57;1.20;;;15.10;99.90;;;;;;5009966;28;20180;-86
2022/09/12 04:28:20;;;;;;;0.97;0.97;;;15.20;99.90;;;;;;5011102;28;20260;-88
2022/09/12 04:30:46;;;;;;;1.53;1.43;;;15.20;99.90;;;;;;5010077;28;20180;-88
2022/09/12 04:33:13;;;;;;;1.20;1.20;;;15.20;99.90;;;;;;5009803;28;20169;-87
2022/09/12 04:35:38;;;;;;;1.70;1.37;;;15.30;99.90;;;;;;5013719;28;20698;-89
2022/09/12 04:38:04;;;;;;;1.40;1.30;;;15.20;99.90;;;;;;5013123;28;20224;-88
2022/09/12 04:40:30;;;;;;;2.93;1.20;;;15.20;99.90;;;;;;5013672;28;20182;-87
2022/09/12 04:42:56;;;;;;;2.90;1.47;;;15.20;99.90;;;;;;5022980;28;20181;-84
2022/09/12 04:45:22;;;;;;;1.43;1.43;;;15.10;99.90;;;;;;5014581;28;20185;-87
2022/09/12 04:47:48;;;;;;;1.60;1.50;;;15.20;99.90;;;;;;5012672;28;20926;-86
2022/09/12 04:50:14;;;;;;;1.40;1.30;;;15.10;99.90;;;;;;5011557;28;20174;-87
2022/09/12 04:52:42;;;;;;;2.20;1.60;;;15.10;99.90;;;;;;5017336;28;20705;-87
2022/09/12 04:55:08;;;;;;;2.17;1.57;;;15.10;99.90;;;;;;5012243;28;20204;-88
2022/09/12 04:57:35;;;;;;;1.50;1.50;;;15.10;99.90;;;;;;5010296;28;20178;-88
2022/09/12 05:00:04;;;;;;;2.10;1.60;;;15.00;99.90;;;;;;5015124;28;20207;-86
2022/09/12 05:02:32;;;;;;;10.67;1.80;;;15.00;99.90;;;;;;5017140;28;20184;-85
2022/09/12 05:04:58;;;;;;;2.20;1.83;;;15.00;99.90;;;;;;5012703;28;20187;-86
2022/09/12 05:07:24;;;;;;;1.80;1.70;;;15.00;99.90;;;;;;5009128;28;20669;-86
2022/09/12 05:09:49;;;;;;;1.80;1.70;;;15.00;99.90;;;;;;5010937;28;20191;-89
2022/09/12 05:12:15;;;;;;;3.10;2.00;;;14.90;99.90;;;;;;5010689;28;20644;-89
2022/09/12 05:14:41;;;;;;;2.00;1.90;;;14.90;99.90;;;;;;5010414;28;20213;-86
2022/09/12 05:17:07;;;;;;;3.70;2.10;;;14.80;99.90;;;;;;5009994;28;20236;-85
2022/09/12 05:19:33;;;;;;;3.30;2.10;;;14.80;99.90;;;;;;5010110;28;20652;-87
2022/09/12 05:21:59;;;;;;;6.30;2.23;;;14.80;99.90;;;;;;5009188;28;20189;-88
2022/09/12 05:24:25;;;;;;;2.73;2.17;;;14.80;99.90;;;;;;5010086;28;20313;-87
2022/09/12 05:26:51;;;;;;;3.47;2.27;;;14.80;99.90;;;;;;5008749;28;20200;-87
2022/09/12 05:29:17;;;;;;;6.63;1.80;;;14.80;99.90;;;;;;5008932;28;20184;-88
2022/09/12 05:31:43;;;;;;;4.00;2.43;;;14.80;99.90;;;;;;5010001;28;20602;-89
2022/09/12 05:34:09;;;;;;;2.60;1.90;;;14.80;99.90;;;;;;5009477;28;20272;-85
2022/09/12 05:36:36;;;;;;;5.13;2.13;;;14.70;99.90;;;;;;5010014;28;20236;-85
2022/09/12 05:39:03;;;;;;;7.73;2.40;;;14.60;99.90;;;;;;5026488;28;20216;-84
2022/09/12 05:41:31;;;;;;;2.13;2.03;;;14.70;99.90;;;;;;5034871;28;20258;-86
2022/09/12 05:43:59;;;;;;;2.20;2.10;;;14.70;99.90;;;;;;5020627;28;20201;-88
2022/09/12 05:46:29;;;;;;;2.73;2.03;;;14.60;99.90;;;;;;5012553;28;20552;-87
2022/09/12 05:48:57;;;;;;;2.63;2.17;;;14.70;99.90;;;;;;5021154;28;20165;-87
2022/09/12 05:51:25;;;;;;;2.10;2.00;;;14.70;99.90;;;;;;5015061;28;20207;-88
2022/09/12 05:53:54;;;;;;;2.07;1.97;;;14.80;99.90;;;;;;5013545;28;20181;-86
2022/09/12 05:56:22;;;;;;;2.40;2.20;;;14.90;99.90;;;;;;5013904;28;20238;-88
2022/09/12 05:58:53;;;;;;;3.27;2.40;;;14.90;99.90;;;;;;5014309;28;20569;-85
2022/09/12 06:01:19;;;;;;;5.30;2.10;;;15.00;99.90;;;;;;5014027;28;20209;-88
2022/09/12 06:03:48;;;;;;;3.87;2.00;;;14.90;99.90;;;;;;5015668;28;20681;-88
2022/09/12 06:06:15;;;;;;;2.80;2.13;;;14.90;99.90;;;;;;5018796;28;20178;-85
2022/09/12 06:08:43;;;;;;;3.07;2.03;;;15.00;99.90;;;;;;5015103;28;20229;-89
2022/09/12 06:11:12;;;;;;;3.57;2.50;;;15.00;99.90;;;;;;5014636;28;20173;-87
2022/09/12 06:13:39;;;;;;;2.50;2.30;;;15.10;99.90;;;;;;5014591;28;20173;-87
2022/09/12 06:16:07;;;;;;;3.70;2.67;;;15.10;99.90;;;;;;5014148;28;20208;-85
2022/09/12 06:18:34;;;;;;;6.97;2.23;;;15.20;99.90;;;;;;5015218;28;20259;-84
2022/09/12 06:21:08;;;;;;;2.90;2.40;;;15.30;99.90;;;;;;5013877;28;20288;-88
2022/09/12 06:23:37;;;;;;;5.37;2.07;;;15.30;99.90;;;;;;5015767;28;20185;-87
2022/09/12 06:26:04;;;;;;;6.80;2.80;;;15.30;99.90;;;;;;5017029;28;20184;-85
2022/09/12 06:28:31;;;;;;;4.83;2.27;;;15.30;99.90;;;;;;5017124;28;20189;-87
2022/09/12 06:31:05;;;;;;;3.47;2.57;;;15.40;99.90;;;;;;5017421;28;20179;-86
2022/09/12 06:33:33;;;;;;;4.50;2.70;;;15.40;99.90;;;;;;5019595;28;20177;-88
2022/09/12 06:36:11;;;;;;;4.30;2.30;;;15.40;99.90;;;;;;5018261;28;20205;-88
2022/09/12 06:38:38;;;;;;;3.30;2.30;;;15.50;99.90;;;;;;5020196;28;20193;-89
2022/09/12 06:41:06;;;;;;;4.43;2.30;;;15.50;99.90;;;;;;5024283;28;20191;-91
2022/09/12 06:43:33;;;;;;;2.73;2.20;;;15.60;99.90;;;;;;5023631;28;20204;-85
2022/09/12 06:46:00;;;;;;;2.70;2.23;;;15.70;99.90;;;;;;5017507;28;20175;-86
2022/09/12 06:48:26;;;;;;;6.43;2.37;;;15.80;99.90;;;;;;5017391;28;20169;-85
2022/09/12 06:51:08;;;;;;;4.77;2.57;;;15.90;99.90;;;;;;5018005;28;20213;-86
2022/09/12 06:53:37;;;;;;;4.47;2.60;;;16.00;99.90;;;;;;5016393;28;20172;-85
2022/09/12 06:56:06;;;;;;;2.63;2.07;;;16.10;99.90;;;;;;5015522;28;20220;-87
2022/09/12 06:58:33;;;;;;;2.67;2.40;;;16.20;99.90;;;;;;5014640;28;20252;-88
2022/09/12 07:01:12;;;;;;;3.60;2.37;;;16.40;99.90;;;;;;5015486;28;20173;-88
2022/09/12 07:03:38;;;;;;;2.77;2.53;;;16.50;99.90;;;;;;5015533;28;20601;-90
2022/09/12 07:06:12;;;;;;;7.83;2.60;;;16.80;99.90;;;;;;5015408;28;20572;-87
2022/09/12 07:08:39;;;;;;;3.03;2.20;;;17.00;99.90;;;;;;5014306;28;20189;-88
2022/09/12 07:11:14;;;;;;;3.67;2.40;;;17.20;99.90;;;;;;5014112;28;20192;-90
2022/09/12 07:13:42;;;;;;;7.30;2.77;;;17.40;99.90;;;;;;5014733;28;20515;-89
2022/09/12 07:16:09;;;;;;;2.57;2.37;;;17.50;99.90;;;;;;5014951;28;20259;-90
2022/09/12 07:18:39;;;;;;;3.60;2.40;;;17.70;99.90;;;;;;5016867;28;20173;-86
2022/09/12 07:21:09;;;;;;;7.90;2.20;;;17.80;99.90;;;;;;5034700;28;20165;-86
2022/09/12 07:23:35;;;;;;;5.73;2.43;;;17.80;99.90;;;;;;5022721;28;20192;-92
2022/09/12 07:26:04;;;;;;;2.73;2.47;;;17.90;99.90;;;;;;5018577;28;20188;-89
2022/09/12 07:28:31;;;;;;;4.47;2.47;;;17.90;99.90;;;;;;5016963;28;20176;-90
2022/09/12 07:31:03;;;;;;;4.00;2.57;;;17.90;99.90;;;;;;5015943;28;20188;-85
2022/09/12 07:33:29;;;;;;;2.97;2.33;;;18.10;99.90;;;;;;5016164;28;20252;-86
2022/09/12 07:35:59;;;;;;;4.73;2.50;;;18.10;99.90;;;;;;5013762;28;20284;-89
2022/09/12 07:38:25;;;;;;;2.50;2.30;;;18.10;99.90;;;;;;5013897;28;20166;-86
2022/09/12 07:40:51;;;;;;;10.77;2.97;;;18.10;99.90;;;;;;5014448;28;20203;-86
2022/09/12 07:43:16;;;;;;;5.50;2.83;;;18.10;99.90;;;;;;5014213;28;20181;-88
2022/09/12 07:45:42;;;;;;;6.43;2.67;;;18.10;99.90;;;;;;5013907;28;20645;-85
2022/09/12 07:48:08;;;;;;;6.10;2.73;;;18.10;99.90;;;;;;5012362;28;20177;-86
2022/09/12 07:50:35;;;;;;;5.17;2.00;;;18.00;99.90;;;;;;5013541;28;20169;-88
2022/09/12 07:53:05;;;;;;;4.20;2.30;;;18.10;99.90;;;;;;5013934;28;20181;-85
2022/09/12 07:55:31;;;;;;;7.63;2.67;;;18.10;99.90;;;;;;5014021;28;20213;-85
2022/09/12 07:58:00;;;;;;;3.27;2.77;;;18.10;99.90;;;;;;5020554;28;20529;-89
2022/09/12 08:00:34;;;;;;;5.67;2.90;;;18.10;99.90;;;;;;5036269;28;20173;-84
2022/09/12 08:03:01;;;;;;;4.73;2.97;;;18.20;99.90;;;;;;5034652;28;20157;-88
2022/09/12 08:05:28;;;;;;;5.40;2.90;;;18.20;99.90;;;;;;5019748;28;20173;-85
2022/09/12 08:07:54;;;;;;;3.20;2.37;;;18.30;99.90;;;;;;5018236;28;20184;-87
2022/09/12 08:10:20;;;;;;;5.60;2.20;;;18.30;99.90;;;;;;5015677;28;20181;-89
2022/09/12 08:12:46;;;;;;;2.53;2.33;;;18.40;99.90;;;;;;5015615;28;20173;-88
2022/09/12 08:15:12;;;;;;;6.70;2.13;;;18.60;99.90;;;;;;5014265;28;20220;-88
2022/09/12 08:17:38;;;;;;;4.40;2.53;;;18.60;99.90;;;;;;5013928;28;20181;-86
2022/09/12 08:20:04;;;;;;;5.60;2.63;;;18.80;99.90;;;;;;5023228;28;20232;-84
2022/09/12 08:22:30;;;;;;;3.63;2.70;;;18.90;99.90;;;;;;5023760;28;20169;-88
2022/09/12 08:24:56;;;;;;;2.57;2.30;;;19.00;99.90;;;;;;5019136;28;20227;-87
2022/09/12 08:27:23;;;;;;;5.33;1.90;;;19.00;99.90;;;;;;5026307;28;20263;-85
2022/09/12 08:29:49;;;;;;;2.53;2.10;;;19.00;99.90;;;;;;5021662;28;20268;-85
2022/09/12 08:32:14;;;;;;;2.30;2.00;;;19.20;99.90;;;;;;5020159;28;20231;-88
2022/09/12 08:34:40;;;;;;;6.30;2.53;;;19.30;99.90;;;;;;5013948;28;20282;-86
2022/09/12 08:37:06;;;;;;;1.90;1.80;;;19.50;99.90;;;;;;5013895;28;20228;-86
2022/09/12 08:39:32;;;;;;;1.90;1.80;;;19.80;99.90;;;;;;5014717;28;20169;-85
2022/09/12 08:42:02;;;;;;;4.37;2.13;;;20.10;99.90;;;;;;5013232;28;20594;-85
2022/09/12 08:44:49;;;;;;;5.77;3.17;;;20.30;99.90;;;;;;5013352;28;20188;-86
2022/09/12 08:47:40;;;;;;;2.97;1.87;;;20.40;99.90;;;;;;5014120;28;20172;-86
2022/09/12 08:50:15;;;;;;;2.17;1.93;;;20.60;99.90;;;;;;5013879;28;20165;-86
2022/09/12 08:53:03;;;;;;;2.20;2.10;;;20.90;99.90;;;;;;5015398;28;20169;-87
2022/09/12 08:55:41;;;;;;;1.73;1.40;;;21.10;99.90;;;;;;5016040;28;20205;-86
2022/09/12 08:58:19;;;;;;;1.50;1.50;;;21.30;99.90;;;;;;5018474;28;20180;-89
2022/09/12 09:01:07;;;;;;;2.13;1.57;;;21.40;99.90;;;;;;5034023;28;20473;-86
2022/09/12 09:03:39;;;;;;;1.70;1.40;;;21.30;99.90;;;;;;5028606;28;20227;-85
2022/09/12 09:06:23;;;;;;;4.27;1.60;;;21.30;99.90;;;;;;5016252;28;20563;-89
2022/09/12 09:08:57;;;;;;;3.10;1.23;;;21.40;99.90;;;;;;5017854;28;20193;-86
2022/09/12 09:11:50;;;;;;;1.20;1.17;;;21.40;99.90;;;;;;5014689;28;20184;-89
2022/09/12 09:14:47;;;;;;;2.00;1.43;;;21.50;99.90;;;;;;5014204;28;20505;-89
2022/09/12 09:17:34;;;;;;;2.00;1.90;;;21.60;99.90;;;;;;5015219;28;20239;-88
2022/09/12 09:20:27;;;;;;;1.63;1.57;;;21.70;99.90;;;;;;5013179;28;20161;-90
2022/09/12 09:23:25;;;;;;;1.60;1.30;;;21.70;99.90;;;;;;5019738;28;20604;-88
2022/09/12 09:25:57;;;;;;;1.60;1.50;;;21.90;99.90;;;;;;5020619;28;20161;-89
2022/09/12 09:28:43;;;;;;;4.30;2.00;;;22.10;99.50;;;;;;5020865;28;20179;-89
2022/09/12 09:31:19;;;;;;;2.13;1.60;;;22.20;99.30;;;;;;5019716;28;20165;-90
2022/09/12 09:33:51;;;;;;;2.22;1.52;;;22.40;99.40;;;;;;5020512;28;20259;-88
2022/09/12 09:36:37;;;;;;;1.67;1.55;;;22.50;99.30;;;;;;5018426;28;20236;-91
2022/09/12 09:39:04;;;;;;;2.25;1.60;;;22.60;99.00;;;;;;5019364;28;20185;-90
2022/09/12 09:42:00;;;;;;;2.42;1.83;;;22.60;98.90;;;;;;5019996;28;20173;-90
2022/09/12 09:44:30;;;;;;;1.63;1.52;;;22.70;99.10;;;;;;5018806;28;20184;-86
2022/09/12 09:46:58;;;;;;;3.80;1.92;;;22.70;99.10;;;;;;5019771;28;20177;-87
2022/09/12 09:49:27;;;;;;;2.20;1.63;;;22.70;99.40;;;;;;5019503;28;20259;-88
2022/09/12 09:51:53;;;;;;;1.60;1.50;;;22.80;99.50;;;;;;5020663;28;20235;-87
2022/09/12 09:54:25;;;;;;;4.32;1.67;;;22.80;99.40;;;;;;5017122;28;20312;-86
2022/09/12 09:56:51;;;;;;;2.88;1.38;;;22.80;99.50;;;;;;5018725;28;20163;-86
2022/09/12 09:59:26;;;;;;;3.20;1.57;;;22.80;99.40;;;;;;5018482;28;20247;-86
2022/09/12 10:02:02;;;;;;;2.45;1.70;;;22.90;99.40;;;;;;5018286;28;20267;-85
2022/09/12 10:04:38;;;;;;;1.83;1.65;;;22.90;99.30;;;;;;5019409;28;20172;-90
2022/09/12 10:07:05;;;;;;;1.90;1.70;;;22.90;99.20;;;;;;5018968;28;20679;-87
2022/09/12 10:09:35;;;;;;;3.42;1.67;;;22.80;99.30;;;;;;5019704;28;20195;-86
2022/09/12 10:12:25;;;;;;;2.28;2.00;;;22.80;99.60;;;;;;5019420;28;20649;-87
2022/09/12 10:15:00;;;;;;;3.85;1.90;;;22.60;97.80;;;;;;5020870;28;20221;-87
2022/09/12 10:17:30;;;;;;;2.08;1.20;;;22.40;97.60;;;;;;5022147;28;20161;-85
2022/09/12 10:19:57;;;;;;;5.47;3.55;;;22.30;97.40;;;;;;5025501;28;20552;-86
2022/09/12 10:22:28;;;;;;;2.05;1.80;;;22.20;98.20;;;;;;5021907;28;20189;-86
2022/09/12 10:24:59;;;;;;;1.83;1.52;;;22.10;98.00;;;;;;5028382;28;20176;-86
2022/09/12 10:27:30;;;;;;;2.33;1.50;;;22.00;98.40;;;;;;5023654;28;20184;-90
2022/09/12 10:29:59;;;;;;;3.33;2.28;;;21.90;98.50;;;;;;5021693;28;20173;-87
2022/09/12 10:32:38;;;;;;;1.73;1.60;;;21.80;98.60;;;;;;5017241;28;20181;-89
2022/09/12 10:35:20;;;;;;;1.33;1.33;;;21.70;98.50;;;;;;5017407;28;20196;-89
2022/09/12 10:38:06;;;;;;;1.50;1.40;;;21.70;98.30;;;;;;5025552;28;20247;-90
2022/09/12 10:40:39;;;;;;;1.80;1.70;;;21.60;98.20;;;;;;5037836;28;20448;-90
2022/09/12 10:43:24;;;;;;;2.53;2.30;;;21.60;97.90;;;;;;5024872;28;20647;-90
2022/09/12 10:45:50;;;;;;;1.47;1.40;;;21.60;98.00;;;;;;5018825;28;20184;-91
2022/09/12 10:48:30;;;;;;;1.77;1.73;;;21.60;97.60;;;;;;5015540;28;20551;-86
2022/09/12 10:51:00;;;;;;;1.40;1.30;;;21.60;97.80;;;;;;5015342;28;20623;-89
2022/09/12 10:53:39;;;;;;;3.20;1.30;;;21.70;98.00;;;;;;5015691;28;20176;-90
2022/09/12 10:56:29;;;;;;;1.50;1.50;;;21.80;97.70;;;;;;5015500;28;20270;-87
2022/09/12 10:59:24;;;;;;;1.73;1.63;;;21.80;97.60;;;;;;5014678;28;20514;-88
2022/09/12 11:02:08;;;;;;;1.67;1.53;;;21.90;97.70;;;;;;5016542;28;20177;-89
2022/09/12 11:04:58;;;;;;;2.90;1.80;;;22.00;97.80;;;;;;5014896;28;20169;-89
2022/09/12 11:07:35;;;;;;;1.90;1.80;;;22.10;97.70;;;;;;5015918;28;20596;-87
2022/09/12 11:10:35;;;;;;;2.13;1.43;;;22.30;96.80;;;;;;5016863;28;20236;-87
2022/09/12 11:13:13;;;;;;;2.00;1.60;;;22.40;96.60;;;;;;5015050;28;20162;-89
2022/09/12 11:16:27;;;;;;;4.22;1.70;;;22.40;95.90;;;;;;5015550;28;20264;-90
2022/09/12 11:19:21;;;;;;;6.07;1.60;;;22.40;96.30;;;;;;5016543;28;20260;-90
2022/09/12 11:21:58;;;;;;;3.13;1.80;;;22.40;96.80;;;;;;5013966;28;20499;-90
2022/09/12 11:24:58;;;;;;;6.22;2.22;;;22.40;96.90;;;;;;5014603;28;20192;-90
2022/09/12 11:28:07;;;;;;;2.60;2.10;;;22.50;97.30;;;;;;5014738;28;20183;-90
2022/09/12 11:30:50;;;;;;;1.80;1.55;;;22.60;96.60;;;;;;5012949;28;20185;-87
2022/09/12 11:33:56;;;;;;;3.35;1.50;;;22.70;96.00;;;;;;5013117;28;20268;-87
2022/09/12 11:36:49;;;;;;;2.20;1.98;;;22.90;94.90;;;;;;5010768;28;20232;-87
2022/09/12 11:39:18;;;;;;;2.13;1.85;;;23.00;94.30;;;;;;4952670;29;20195;-87
2022/09/12 11:41:55;;;;;;;2.08;1.70;;;23.10;95.00;;;;;;4953128;29;20187;-89
2022/09/12 11:44:23;;;;;;;1.63;1.52;;;23.20;95.40;;;;;;4954537;28;20689;-87
2022/09/12 11:46:49;;;;;;;1.50;1.40;;;23.40;95.70;;;;;;4955217;29;20191;-91
2022/09/12 11:49:36;;;;;;;1.80;1.70;;;23.50;95.20;;;;;;4962447;29;20215;-90
2022/09/12 11:52:22;;;;;;;1.67;1.60;;;23.60;95.20;;;;;;4961335;29;20187;-89
2022/09/12 11:55:18;;;;;;;3.47;1.85;;;23.80;94.60;;;;;;4954565;29;20290;-86
2022/09/12 11:57:53;;;;;;;1.40;1.40;;;24.00;94.10;;;;;;4936150;29;20680;-86
2022/09/12 12:00:35;;;;;;;2.28;1.90;;;24.00;93.70;;;;;;4952484;29;20682;-86
2022/09/12 12:03:07;;;;;;;3.38;1.98;;;24.10;94.50;;;;;;4955863;29;20195;-85
2022/09/12 12:05:54;;;;;;;1.42;1.42;;;24.10;93.80;;;;;;4955592;29;20198;-88
2022/09/12 12:08:23;;;;;;;1.60;1.50;;;24.10;93.90;;;;;;4958175;29;20246;-87
2022/09/12 12:10:56;;;;;;;3.50;1.58;;;24.10;94.00;;;;;;4959785;29;20179;-86
2022/09/12 12:13:44;;;;;;;1.20;1.20;;;24.00;93.80;;;;;;4958034;29;20191;-88
2022/09/12 12:16:22;;;;;;;2.08;1.48;;;23.80;93.30;;;;;;4991972;28;20220;-86
2022/09/12 12:18:54;;;;;;;1.05;1.05;;;23.80;93.30;;;;;;5036152;28;20209;-86
2022/09/12 12:21:41;;;;;;;3.08;2.83;;;23.80;92.80;;;;;;5024491;28;20173;-87
2022/09/12 12:24:06;;;;;;;1.50;1.50;;;23.80;93.30;;;;;;5016516;28;20192;-90
2022/09/12 12:26:59;;;;;;;1.65;1.55;;;23.90;93.10;;;;;;5014006;28;20169;-88
2022/09/12 12:29:34;;;;;;;1.40;1.30;;;23.90;93.10;;;;;;5008323;28;20598;-87
2022/09/12 12:32:02;;;;;;;1.20;1.17;;;24.00;93.00;;;;;;5011966;28;20177;-88
2022/09/12 12:34:31;;;;;;;1.13;1.13;;;24.00;92.30;;;;;;5012022;28;20161;-91
2022/09/12 12:36:58;;;;;;;1.10;1.10;;;24.10;91.90;;;;;;5012093;28;20475;-86
2022/09/12 12:39:30;;;;;;;1.30;1.30;;;24.00;91.80;;;;;;5011738;28;20177;-89
2022/09/12 12:41:56;;;;;;;1.58;1.13;;;24.00;92.40;;;;;;5012081;28;20700;-87
2022/09/12 12:44:42;;;;;;;1.13;1.13;;;23.90;92.00;;;;;;5011131;28;20178;-89
2022/09/12 12:47:22;;;;;;;1.40;1.30;;;23.80;92.30;;;;;;5007154;28;20572;-88
2022/09/12 12:50:06;;;;;;;1.10;1.10;;;23.60;92.10;;;;;;5010320;28;20184;-87
2022/09/12 12:52:47;;;;;;;1.98;1.10;;;23.50;91.80;;;;;;5011212;28;20531;-88
2022/09/12 12:55:18;;;;;;;1.10;1.10;;;23.40;91.50;;;;;;5010482;28;20216;-87
2022/09/12 12:57:51;;;;;;;3.13;1.10;;;23.50;91.90;;;;;;5011946;28;20168;-86
2022/09/12 13:00:20;;;;;;;2.88;1.10;;;23.50;91.30;;;;;;5010378;28;20224;-88
2022/09/12 13:02:58;;;;;;;1.65;1.10;;;23.50;91.50;;;;;;5012404;28;20181;-86
2022/09/12 13:05:26;;;;;;;1.00;1.00;;;23.50;91.90;;;;;;5012595;28;20191;-87
2022/09/12 13:08:01;;;;;;;1.40;1.10;;;23.60;91.10;;;;;;5010586;28;20169;-87
2022/09/12 13:10:29;;;;;;;1.00;1.00;;;23.60;91.10;;;;;;5008604;28;20165;-89
2022/09/12 13:12:59;;;;;;;1.20;1.10;;;23.60;90.80;;;;;;5014376;28;20173;-85
2022/09/12 13:15:47;;;;;;;1.00;1.00;;;23.70;90.50;;;;;;5018827;28;20205;-86
2022/09/12 13:18:18;;;;;;;1.75;1.10;;;23.70;90.60;;;;;;5013787;28;20244;-88
2022/09/12 13:20:51;;;;;;;2.63;1.10;;;23.80;90.90;;;;;;5012325;28;20163;-87